createdAt,value
2022-08-03T00:01:24.949Z,40.71
2022-08-03T00:03:51.672Z,40.37
2022-08-03T00:06:18.441Z,40.42
2022-08-03T00:08:45.409Z,40.71
2022-08-03T00:11:12.324Z,40.77
2022-08-03T00:13:39.089Z,40.72
2022-08-03T00:16:07.388Z,40.53
2022-08-03T00:18:34.152Z,40.32
2022-08-03T00:21:00.897Z,40.45
2022-08-03T00:23:33.123Z,40.65
2022-08-03T00:26:14.655Z,40.55
2022-08-03T00:28:42.120Z,40.45
2022-08-03T00:31:08.844Z,40.37
2022-08-03T00:33:57.988Z,40.47
2022-08-03T00:36:27.168Z,40.79
2022-08-03T00:38:54.028Z,40.73
2022-08-03T00:41:20.838Z,40.68
2022-08-03T00:43:47.887Z,40.84
2022-08-03T00:46:20.543Z,40.61
2022-08-03T00:48:49.324Z,40.98
2022-08-03T00:51:16.144Z,40.46
2022-08-03T00:53:42.916Z,40.83
2022-08-03T00:56:09.892Z,40.61
2022-08-03T00:58:36.632Z,40.47
2022-08-03T01:01:07.175Z,40.69
2022-08-03T01:03:34.554Z,40.79
2022-08-03T01:06:40.058Z,40.89
2022-08-03T01:09:09.668Z,40.62
2022-08-03T01:12:00.250Z,40.67
2022-08-03T01:14:35.482Z,40.90
2022-08-03T01:17:02.266Z,40.58
2022-08-03T01:19:29.271Z,40.69
2022-08-03T01:21:55.996Z,40.66
2022-08-03T01:24:43.663Z,40.92
2022-08-03T01:27:10.692Z,40.68
2022-08-03T01:29:56.019Z,40.60
2022-08-03T01:32:59.921Z,41.09
2022-08-03T01:35:28.090Z,40.83
2022-08-03T01:37:58.547Z,40.90
2022-08-03T01:40:25.699Z,41.22
2022-08-03T01:42:52.654Z,40.66
2022-08-03T01:45:19.709Z,40.64
2022-08-03T01:47:46.901Z,40.65
2022-08-03T01:50:13.710Z,40.67
2022-08-03T01:52:41.709Z,40.74
2022-08-03T01:55:09.020Z,40.82
2022-08-03T01:57:36.097Z,41.22
2022-08-03T02:00:23.381Z,41.23
2022-08-03T02:02:50.616Z,40.79
2022-08-03T02:05:17.500Z,40.80
2022-08-03T02:07:44.514Z,41.28
2022-08-03T02:10:11.886Z,40.88
2022-08-03T02:12:38.957Z,41.42
2022-08-03T02:15:06.113Z,40.94
2022-08-03T02:17:39.160Z,41.43
2022-08-03T02:20:08.311Z,41.44
2022-08-03T02:22:35.079Z,41.45
2022-08-03T02:25:01.821Z,41.08
2022-08-03T02:27:28.819Z,41.03
2022-08-03T02:29:59.064Z,41.45
2022-08-03T02:32:29.212Z,41.26
2022-08-03T02:34:56.306Z,41.48
2022-08-03T02:37:23.976Z,41.55
2022-08-03T02:39:53.359Z,41.07
2022-08-03T02:42:20.874Z,41.64
2022-08-03T02:44:49.285Z,41.07
2022-08-03T02:47:16.171Z,41.11
2022-08-03T02:49:50.545Z,41.15
2022-08-03T02:52:22.083Z,41.44
2022-08-03T02:54:51.204Z,41.71
2022-08-03T02:57:19.471Z,41.82
2022-08-03T02:59:46.251Z,41.79
2022-08-03T03:02:14.234Z,41.42
2022-08-03T03:04:45.084Z,41.51
2022-08-03T03:07:28.861Z,41.75
2022-08-03T03:09:58.018Z,41.64
2022-08-03T03:12:24.849Z,41.41
2022-08-03T03:14:51.996Z,41.75
2022-08-03T03:17:18.729Z,41.89
2022-08-03T03:19:45.678Z,41.91
2022-08-03T03:22:12.718Z,41.52
2022-08-03T03:24:39.477Z,41.51
2022-08-03T03:27:06.306Z,41.73
2022-08-03T03:29:39.253Z,41.57
2022-08-03T03:32:09.124Z,41.25
2022-08-03T03:34:36.425Z,41.58
2022-08-03T03:37:03.277Z,41.71
2022-08-03T03:39:30.018Z,41.90
2022-08-03T03:41:57.605Z,41.88
2022-08-03T03:44:30.529Z,41.80
2022-08-03T03:47:00.281Z,41.57
2022-08-03T03:49:27.404Z,41.61
2022-08-03T03:51:54.968Z,41.88
2022-08-03T03:54:21.835Z,41.97
2022-08-03T03:56:52.597Z,41.73
2022-08-03T03:59:19.409Z,41.56
2022-08-03T04:01:46.228Z,41.35
2022-08-03T04:04:31.880Z,41.96
2022-08-03T04:07:17.433Z,42.06
2022-08-03T04:10:14.506Z,41.66
2022-08-03T04:12:50.184Z,42.22
2022-08-03T04:15:19.004Z,42.41
2022-08-03T04:17:45.830Z,42.30
2022-08-03T04:20:12.575Z,42.47
2022-08-03T04:22:40.299Z,42.43
2022-08-03T04:25:08.364Z,42.20
2022-08-03T04:27:36.516Z,42.28
2022-08-03T04:30:04.689Z,42.18
2022-08-03T04:32:31.395Z,42.16
2022-08-03T04:34:58.202Z,42.38
2022-08-03T04:37:43.202Z,41.97
2022-08-03T04:40:11.027Z,41.94
2022-08-03T04:42:38.274Z,42.00
2022-08-03T04:45:05.355Z,42.02
2022-08-03T04:47:32.458Z,42.09
2022-08-03T04:50:00.685Z,42.32
2022-08-03T04:52:27.454Z,42.18
2022-08-03T04:54:54.193Z,41.97
2022-08-03T04:57:22.098Z,41.98
2022-08-03T04:59:58.216Z,41.61
2022-08-03T05:02:29.013Z,41.17
2022-08-03T05:04:55.810Z,41.35
2022-08-03T05:07:25.072Z,41.37
2022-08-03T05:09:57.560Z,41.42
2022-08-03T05:12:32.525Z,41.52
2022-08-03T05:15:00.357Z,41.32
2022-08-03T05:17:27.093Z,41.16
2022-08-03T05:19:54.018Z,41.31
2022-08-03T05:22:21.660Z,41.41
2022-08-03T05:24:48.884Z,41.26
2022-08-03T05:27:19.574Z,40.88
2022-08-03T05:29:46.794Z,41.32
2022-08-03T05:32:13.676Z,41.28
2022-08-03T05:34:40.411Z,40.82
2022-08-03T05:37:07.526Z,41.15
2022-08-03T05:39:34.799Z,40.72
2022-08-03T05:42:01.752Z,40.80
2022-08-03T05:44:28.787Z,40.55
2022-08-03T05:46:57.671Z,40.89
2022-08-03T05:49:24.528Z,40.44
2022-08-03T05:52:00.090Z,40.69
2022-08-03T05:54:56.711Z,40.21
2022-08-03T05:57:25.287Z,40.61
2022-08-03T05:59:53.922Z,40.20
2022-08-03T06:02:25.187Z,40.14
2022-08-03T06:04:52.004Z,39.91
2022-08-03T06:07:18.782Z,40.17
2022-08-03T06:10:33.310Z,40.17
2022-08-03T06:12:36.090Z,40.16
2022-08-03T06:15:04.022Z,39.81
2022-08-03T06:17:37.761Z,39.79
2022-08-03T06:20:05.737Z,40.30
2022-08-03T06:22:32.495Z,40.19
2022-08-03T06:25:03.676Z,40.35
2022-08-03T06:27:36.499Z,40.22
2022-08-03T06:30:04.695Z,40.02
2022-08-03T06:32:31.449Z,40.26
2022-08-03T06:34:58.428Z,40.26
2022-08-03T06:37:25.160Z,39.94
2022-08-03T06:39:51.915Z,39.79
2022-08-03T06:42:19.118Z,40.06
2022-08-03T06:44:47.516Z,39.58
2022-08-03T06:47:14.316Z,40.06
2022-08-03T06:49:41.801Z,40.07
2022-08-03T06:52:08.669Z,39.61
2022-08-03T06:54:36.040Z,39.60
2022-08-03T06:57:03.736Z,40.13
2022-08-03T07:00:10.995Z,40.43
2022-08-03T07:02:19.611Z,39.79
2022-08-03T07:04:49.697Z,40.11
2022-08-03T07:07:17.431Z,39.88
2022-08-03T07:09:57.193Z,39.64
2022-08-03T07:12:25.208Z,39.66
2022-08-03T07:14:55.509Z,39.40
2022-08-03T07:17:24.928Z,40.00
2022-08-03T07:19:51.650Z,39.99
2022-08-03T07:22:18.988Z,39.39
2022-08-03T07:24:46.741Z,39.11
2022-08-03T07:27:13.553Z,39.69
2022-08-03T07:29:40.507Z,39.30
2022-08-03T07:32:07.327Z,40.23
2022-08-03T07:34:34.152Z,39.49
2022-08-03T07:37:01.131Z,39.45
2022-08-03T07:39:27.890Z,39.37
2022-08-03T07:41:54.662Z,39.42
2022-08-03T07:44:21.716Z,39.29
2022-08-03T07:46:48.530Z,38.99
2022-08-03T07:49:15.361Z,38.84
2022-08-03T07:51:42.391Z,39.13
2022-08-03T07:54:10.272Z,39.15
2022-08-03T07:56:37.243Z,39.08
2022-08-03T07:59:04.271Z,39.06
2022-08-03T08:01:32.953Z,38.77
2022-08-03T08:03:59.731Z,38.82
2022-08-03T08:06:26.848Z,38.98
2022-08-03T08:08:54.053Z,38.59
2022-08-03T08:11:22.303Z,38.70
2022-08-03T08:13:49.378Z,38.51
2022-08-03T08:16:16.761Z,38.58
2022-08-03T08:18:43.552Z,38.44
2022-08-03T08:21:10.663Z,38.35
2022-08-03T08:23:42.436Z,38.51
2022-08-03T08:26:11.479Z,38.29
2022-08-03T08:28:38.290Z,38.38
2022-08-03T08:31:05.137Z,38.32
2022-08-03T08:33:54.334Z,38.28
2022-08-03T08:36:19.374Z,38.29
2022-08-03T08:38:46.450Z,38.06
2022-08-03T08:41:13.584Z,38.28
2022-08-03T08:43:40.311Z,38.02
2022-08-03T08:46:10.479Z,37.99
2022-08-03T08:48:38.892Z,37.80
2022-08-03T08:51:05.650Z,37.90
2022-08-03T08:53:33.746Z,37.92
2022-08-03T08:56:01.247Z,37.86
2022-08-03T08:58:35.023Z,37.89
2022-08-03T09:01:02.060Z,37.68
2022-08-03T09:03:30.362Z,37.52
2022-08-03T09:06:01.059Z,37.37
2022-08-03T09:08:29.013Z,37.53
2022-08-03T09:10:55.822Z,37.44
2022-08-03T09:13:22.839Z,37.38
2022-08-03T09:16:00.907Z,37.37
2022-08-03T09:18:30.576Z,37.29
2022-08-03T09:21:34.181Z,36.80
2022-08-03T09:24:04.776Z,37.06
2022-08-03T09:26:35.907Z,36.99
2022-08-03T09:29:16.771Z,36.77
2022-08-03T09:31:44.945Z,36.63
2022-08-03T09:34:12.929Z,36.55
2022-08-03T09:36:49.029Z,37.17
2022-08-03T09:39:17.008Z,36.70
2022-08-03T09:41:44.895Z,36.82
2022-08-03T09:44:24.288Z,36.73
2022-08-03T09:46:58.657Z,36.60
2022-08-03T09:49:25.648Z,36.49
2022-08-03T09:52:31.329Z,36.34
2022-08-03T09:54:42.016Z,35.94
2022-08-03T09:57:09.052Z,36.35
2022-08-03T09:59:35.818Z,36.26
2022-08-03T10:02:06.235Z,36.82
2022-08-03T10:04:32.993Z,36.12
2022-08-03T10:07:06.647Z,35.72
2022-08-03T10:09:33.770Z,36.58
2022-08-03T10:12:10.598Z,35.72
2022-08-03T10:14:41.984Z,36.37
2022-08-03T10:17:11.854Z,35.77
2022-08-03T10:19:38.996Z,36.19
2022-08-03T10:22:23.956Z,36.49
2022-08-03T10:24:59.485Z,36.35
2022-08-03T10:27:27.159Z,36.08
2022-08-03T10:29:55.564Z,36.31
2022-08-03T10:32:24.638Z,35.50
2022-08-03T10:34:52.157Z,35.55
2022-08-03T10:37:28.081Z,35.56
2022-08-03T10:39:55.023Z,35.62
2022-08-03T10:42:26.451Z,35.31
2022-08-03T10:44:56.755Z,34.87
2022-08-03T10:47:23.533Z,34.61
2022-08-03T10:49:50.415Z,34.42
2022-08-03T10:52:32.590Z,34.92
2022-08-03T10:55:21.472Z,34.70
2022-08-03T10:57:56.204Z,34.96
2022-08-03T11:00:26.459Z,34.45
2022-08-03T11:03:10.028Z,33.97
2022-08-03T11:05:37.834Z,34.59
2022-08-03T11:08:23.586Z,33.83
2022-08-03T11:10:50.895Z,33.15
2022-08-03T11:13:21.518Z,32.95
2022-08-03T11:15:48.950Z,33.75
2022-08-03T11:18:15.787Z,33.76
2022-08-03T11:20:50.179Z,31.61
2022-08-03T11:23:17.617Z,32.43
2022-08-03T11:26:17.458Z,30.84
2022-08-03T11:28:45.070Z,30.77
2022-08-03T11:31:48.784Z,33.65
2022-08-03T11:34:15.012Z,32.36
2022-08-03T11:37:00.355Z,32.55
2022-08-03T11:39:40.402Z,32.97
2022-08-03T11:42:22.911Z,32.21
2022-08-03T11:44:50.336Z,33.27
2022-08-03T11:47:18.097Z,32.65
2022-08-03T11:49:48.198Z,32.89
2022-08-03T11:52:15.139Z,33.13
2022-08-03T11:54:42.500Z,32.94
2022-08-03T11:57:09.406Z,33.20
2022-08-03T11:59:38.524Z,33.57
2022-08-03T12:02:09.013Z,31.68
2022-08-03T12:04:54.008Z,33.04
2022-08-03T12:07:25.054Z,32.22
2022-08-03T12:10:12.177Z,33.69
2022-08-03T12:12:42.237Z,32.89
2022-08-03T12:15:13.021Z,31.53
2022-08-03T12:17:41.009Z,32.96
2022-08-03T12:20:08.424Z,31.39
2022-08-03T12:22:35.766Z,31.58
2022-08-03T12:25:03.361Z,32.00
2022-08-03T12:27:30.167Z,32.22
2022-08-03T12:29:58.954Z,32.66
2022-08-03T12:32:29.419Z,32.45
2022-08-03T12:35:00.048Z,32.49
2022-08-03T12:37:27.379Z,32.14
2022-08-03T12:40:02.405Z,31.98
2022-08-03T12:42:39.083Z,31.69
2022-08-03T12:45:21.396Z,31.32
2022-08-03T12:48:00.900Z,32.34
2022-08-03T12:50:31.470Z,32.70
2022-08-03T12:52:59.198Z,32.66
2022-08-03T12:55:56.556Z,32.55
2022-08-03T12:58:33.777Z,32.05
2022-08-03T13:01:01.262Z,32.06
2022-08-03T13:03:42.706Z,31.03
2022-08-03T13:06:16.654Z,31.89
2022-08-03T13:08:44.205Z,32.06
2022-08-03T13:11:20.820Z,30.79
2022-08-03T13:13:48.073Z,31.34
2022-08-03T13:16:19.161Z,30.53
2022-08-03T13:18:49.298Z,31.03
2022-08-03T13:21:16.418Z,31.63
2022-08-03T13:23:43.279Z,31.89
2022-08-03T13:26:10.519Z,31.37
2022-08-03T13:28:37.955Z,31.88
2022-08-03T13:31:04.746Z,31.26
2022-08-03T13:33:33.894Z,31.90
2022-08-03T13:36:00.943Z,31.42
2022-08-03T13:38:27.827Z,31.56
2022-08-03T13:40:55.288Z,31.44
2022-08-03T13:43:23.369Z,32.06
2022-08-03T13:45:53.561Z,31.75
2022-08-03T13:48:35.989Z,31.50
2022-08-03T13:51:11.864Z,31.40
2022-08-03T13:53:50.306Z,30.96
2022-08-03T13:56:17.304Z,31.23
2022-08-03T13:58:44.199Z,31.29
2022-08-03T14:01:11.367Z,30.56
2022-08-03T14:03:38.511Z,30.60
2022-08-03T14:06:05.275Z,30.94
2022-08-03T14:08:32.046Z,31.33
2022-08-03T14:10:59.179Z,31.06
2022-08-03T14:13:25.899Z,31.78
2022-08-03T14:15:52.705Z,30.75
2022-08-03T14:18:28.535Z,31.10
2022-08-03T14:21:05.489Z,31.31
2022-08-03T14:23:33.413Z,31.05
2022-08-03T14:26:00.460Z,31.04
2022-08-03T14:28:27.233Z,31.31
2022-08-03T14:30:54.579Z,31.28
2022-08-03T14:33:21.518Z,30.28
2022-08-03T14:35:48.467Z,30.38
2022-08-03T14:38:15.650Z,30.78
2022-08-03T14:40:42.501Z,30.78
2022-08-03T14:43:09.318Z,30.31
2022-08-03T14:45:36.286Z,30.95
2022-08-03T14:50:29.530Z,31.14
2022-08-03T14:50:52.682Z,31.01
2022-08-03T14:53:19.832Z,31.04
2022-08-03T14:55:50.618Z,30.96
2022-08-03T14:58:22.432Z,31.74
2022-08-03T15:00:49.962Z,31.58
2022-08-03T15:03:17.607Z,31.26
2022-08-03T15:05:44.754Z,31.93
2022-08-03T15:08:11.664Z,31.59
2022-08-03T15:10:40.368Z,31.01
2022-08-03T15:13:12.252Z,30.92
2022-08-03T15:15:39.113Z,31.49
2022-08-03T15:18:05.880Z,31.71
2022-08-03T15:20:43.808Z,31.51
2022-08-03T15:23:12.426Z,31.14
2022-08-03T15:26:28.678Z,30.76
2022-08-03T15:28:26.211Z,30.84
2022-08-03T15:30:53.301Z,31.68
2022-08-03T15:33:20.276Z,31.15
2022-08-03T15:35:47.756Z,31.81
2022-08-03T15:38:14.960Z,31.65
2022-08-03T15:40:41.805Z,31.38
2022-08-03T15:43:08.738Z,32.12
2022-08-03T15:45:36.249Z,32.38
2022-08-03T15:48:04.679Z,32.11
2022-08-03T15:50:31.450Z,31.95
2022-08-03T15:52:58.403Z,31.22
2022-08-03T15:55:25.245Z,31.69
2022-08-03T15:59:10.001Z,32.20
2022-08-03T16:00:39.630Z,31.94
2022-08-03T16:03:06.435Z,32.38
2022-08-03T16:05:33.264Z,31.89
2022-08-03T16:08:03.572Z,32.40
2022-08-03T16:10:31.593Z,31.49
2022-08-03T16:13:01.345Z,31.42
2022-08-03T16:15:28.511Z,31.73
2022-08-03T16:17:55.322Z,31.58
2022-08-03T16:20:31.261Z,31.69
2022-08-03T16:23:06.287Z,32.01
2022-08-03T16:25:42.023Z,32.30
2022-08-03T16:28:13.932Z,31.23
2022-08-03T16:30:44.510Z,32.38
2022-08-03T16:33:11.799Z,32.63
2022-08-03T16:35:44.865Z,32.69
2022-08-03T16:38:16.592Z,33.06
2022-08-03T16:40:47.158Z,32.69
2022-08-03T16:43:19.016Z,32.69
2022-08-03T16:45:46.536Z,32.52
2022-08-03T16:48:13.467Z,32.45
2022-08-03T16:50:40.227Z,32.58
2022-08-03T16:53:09.117Z,32.38
2022-08-03T16:55:48.477Z,32.76
2022-08-03T16:58:34.379Z,32.51
2022-08-03T17:01:20.845Z,32.66
2022-08-03T17:04:01.575Z,32.77
2022-08-03T17:06:34.294Z,32.98
2022-08-03T17:09:03.376Z,33.30
2022-08-03T17:11:32.936Z,32.71
2022-08-03T17:14:00.172Z,33.54
2022-08-03T17:16:27.180Z,33.03
2022-08-03T17:18:58.675Z,33.59
2022-08-03T17:21:30.958Z,33.41
2022-08-03T17:24:00.025Z,33.15
2022-08-03T17:26:30.371Z,33.39
2022-08-03T17:28:58.454Z,33.80
2022-08-03T17:31:32.207Z,33.95
2022-08-03T17:34:12.474Z,33.38
2022-08-03T17:37:03.111Z,33.56
2022-08-03T17:39:48.427Z,33.73
2022-08-03T17:42:30.343Z,34.17
2022-08-03T17:45:02.296Z,33.71
2022-08-03T17:47:42.033Z,33.69
2022-08-03T17:50:24.832Z,33.62
2022-08-03T17:55:59.435Z,34.26
2022-08-03T17:58:37.230Z,33.77
2022-08-03T18:02:00.275Z,34.21
2022-08-03T18:04:12.670Z,33.74
2022-08-03T18:06:56.591Z,34.27
2022-08-03T18:10:06.764Z,34.27
2022-08-03T18:12:14.303Z,34.04
2022-08-03T18:14:57.694Z,34.04
2022-08-03T18:17:54.585Z,33.95
2022-08-03T18:20:32.808Z,33.86
2022-08-03T18:23:04.997Z,33.78
2022-08-03T18:25:45.554Z,33.91
2022-08-03T18:28:18.947Z,33.70
2022-08-03T18:30:53.551Z,34.00
2022-08-03T18:34:19.856Z,34.65
2022-08-03T18:36:10.446Z,34.37
2022-08-03T18:38:40.898Z,34.60
2022-08-03T18:41:12.701Z,34.64
2022-08-03T18:44:06.812Z,35.58
2022-08-03T18:46:43.166Z,37.13
2022-08-03T18:49:11.422Z,37.20
2022-08-03T18:51:43.481Z,36.87
2022-08-03T18:54:46.692Z,36.98
2022-08-03T18:57:07.761Z,37.53
2022-08-03T18:59:38.590Z,37.75
2022-08-03T19:02:06.091Z,37.84
2022-08-03T19:04:45.465Z,38.33
2022-08-03T19:07:14.666Z,38.48
2022-08-03T19:09:44.420Z,38.80
2022-08-03T19:12:37.433Z,39.18
2022-08-03T19:15:10.562Z,39.25
2022-08-03T19:17:40.276Z,39.35
2022-08-03T19:20:09.156Z,39.70
2022-08-03T19:22:37.172Z,39.71
2022-08-03T19:25:04.598Z,39.39
2022-08-03T19:27:31.571Z,39.63
2022-08-03T19:30:02.913Z,39.37
2022-08-03T19:32:31.289Z,39.52
2022-08-03T19:34:59.582Z,39.50
2022-08-03T19:37:38.413Z,39.32
2022-08-03T19:40:10.429Z,40.14
2022-08-03T19:42:38.032Z,39.95
2022-08-03T19:45:11.461Z,39.71
2022-08-03T19:48:09.977Z,39.34
2022-08-03T19:50:37.437Z,39.40
2022-08-03T19:53:12.267Z,39.36
2022-08-03T19:55:48.952Z,39.75
2022-08-03T19:58:17.810Z,39.64
2022-08-03T20:00:51.436Z,39.90
2022-08-03T20:03:21.844Z,39.70
2022-08-03T20:05:51.999Z,39.67
2022-08-03T20:08:21.257Z,40.30
2022-08-03T20:10:48.047Z,40.54
2022-08-03T20:13:16.098Z,40.48
2022-08-03T20:15:46.519Z,40.03
2022-08-03T20:18:16.918Z,40.67
2022-08-03T20:20:43.912Z,40.24
2022-08-03T20:23:15.997Z,40.24
2022-08-03T20:25:57.420Z,40.51
2022-08-03T20:28:31.013Z,40.86
2022-08-03T20:30:58.224Z,40.52
2022-08-03T20:33:27.924Z,40.93
2022-08-03T20:36:13.693Z,40.68
2022-08-03T20:38:46.881Z,40.92
2022-08-03T20:41:14.549Z,40.96
2022-08-03T20:43:41.594Z,40.65
2022-08-03T20:46:31.913Z,40.62
2022-08-03T20:48:56.033Z,40.67
2022-08-03T20:51:49.497Z,40.56
2022-08-03T20:54:20.830Z,41.03
2022-08-03T20:56:57.193Z,40.81
2022-08-03T20:59:28.869Z,40.60
2022-08-03T21:01:57.216Z,40.80
2022-08-03T21:04:24.540Z,41.01
2022-08-03T21:06:56.018Z,40.73
2022-08-03T21:09:24.566Z,41.00
2022-08-03T21:12:01.416Z,40.56
2022-08-03T21:12:55.594Z,34.16
2022-08-03T21:14:45.340Z,40.74
2022-08-03T21:17:25.104Z,40.83
2022-08-03T21:19:58.248Z,40.63
2022-08-03T21:22:25.257Z,40.95
2022-08-03T21:24:54.417Z,40.68
2022-08-03T21:27:23.560Z,40.91
2022-08-03T21:29:52.866Z,40.31
2022-08-03T21:32:30.035Z,40.65
2022-08-03T21:35:00.532Z,40.85
2022-08-03T21:37:27.300Z,40.93
2022-08-03T21:39:54.577Z,40.83
2022-08-03T21:42:23.879Z,41.13
2022-08-03T21:44:53.523Z,40.76
2022-08-03T21:47:23.967Z,40.84
2022-08-03T21:50:08.663Z,41.01
2022-08-03T21:52:42.912Z,40.97
2022-08-03T21:55:20.694Z,41.04
2022-08-03T21:57:50.790Z,41.06
2022-08-03T22:00:18.366Z,41.08
2022-08-03T22:02:45.549Z,41.20
2022-08-03T22:05:28.138Z,41.31
2022-08-03T22:08:07.650Z,41.18
2022-08-03T22:10:34.609Z,41.04
2022-08-03T22:13:01.374Z,41.21
2022-08-03T22:15:28.114Z,41.17
2022-08-03T22:17:57.165Z,41.45
2022-08-03T22:20:24.282Z,41.15
2022-08-03T22:22:55.757Z,41.29
2022-08-03T22:25:30.848Z,41.06
2022-08-03T22:28:01.686Z,41.15
2022-08-03T22:30:28.891Z,40.88
2022-08-03T22:32:56.408Z,41.01
2022-08-03T22:35:24.513Z,41.24
2022-08-03T22:37:52.777Z,41.18
2022-08-03T22:40:19.540Z,41.28
2022-08-03T22:42:46.408Z,41.27
2022-08-03T22:46:07.796Z,41.25
2022-08-03T22:48:00.360Z,41.11
2022-08-03T22:50:33.530Z,41.16
2022-08-03T22:53:00.809Z,41.46
2022-08-03T22:55:27.556Z,41.31
2022-08-03T22:57:56.100Z,41.39
2022-08-03T23:00:23.169Z,41.25
2022-08-03T23:02:49.972Z,41.27
2022-08-03T23:06:01.087Z,41.34
2022-08-03T23:08:04.776Z,41.13
2022-08-03T23:10:31.756Z,41.36
2022-08-03T23:12:58.605Z,41.34
2022-08-03T23:15:25.352Z,41.32
2022-08-03T23:17:57.807Z,41.56
2022-08-03T23:20:26.621Z,41.61
2022-08-03T23:22:54.309Z,41.64
2022-08-03T23:25:22.098Z,41.66
2022-08-03T23:27:49.224Z,41.23
2022-08-03T23:30:34.169Z,41.56
2022-08-03T23:33:00.941Z,41.65
2022-08-03T23:36:18.755Z,41.36
2022-08-03T23:38:36.353Z,41.42
2022-08-03T23:41:03.531Z,41.74
2022-08-03T23:43:53.578Z,41.38
2022-08-03T23:46:19.839Z,41.28
2022-08-03T23:48:46.646Z,41.53
2022-08-03T23:51:14.629Z,41.21
2022-08-03T23:53:41.939Z,41.49
2022-08-03T23:56:24.716Z,41.45
2022-08-03T23:58:51.709Z,41.69
